www.winti-wetter.ch
Wetterdaten: aktuell Dienstag, 23.07.2024 09:55
Datum Zeit Temp. A. Feuchte A. Luftdruck Regen Wind Richtung Richtung Sonnenschein T Zeit Regen Solar Windben
23.07.2024 09:55 21.1 C 77 % 1021.3 hPa 0.0 l/m 5.2 km/h S-SW 195 0 min 0 min 313 W/m 12.9 km/h
23.07.2024 09:50 20.9 C 77 % 1021.3 hPa 0.0 l/m 5.2 km/h S-SW 211 5 min 0 min 338 W/m 9.7 km/h
23.07.2024 09:45 20.8 C 76 % 1021.3 hPa 0.0 l/m 7.4 km/h S 184 0 min 0 min 264 W/m 11.3 km/h
23.07.2024 09:40 20.8 C 78 % 1021.4 hPa 0.0 l/m 4.4 km/h S 188 0 min 0 min 257 W/m 11.3 km/h
23.07.2024 09:35 20.7 C 79 % 1021.4 hPa 0.0 l/m 4.1 km/h S-SO 162 0 min 0 min 313 W/m 8.0 km/h
23.07.2024 09:30 20.6 C 77 % 1021.6 hPa 0.0 l/m 5.3 km/h SW 223 5 min 0 min 310 W/m 11.3 km/h
23.07.2024 09:25 20.8 C 79 % 1021.6 hPa 0.0 l/m 0.4 km/h W-SW 246 5 min 0 min 361 W/m 3.2 km/h
23.07.2024 09:20 20.2 C 79 % 1021.6 hPa 0.0 l/m 1.4 km/h W-SW 246 5 min 0 min 318 W/m 4.8 km/h
23.07.2024 09:15 20.1 C 76 % 1021.6 hPa 0.0 l/m 2.3 km/h W-SW 246 0 min 0 min 212 W/m 6.4 km/h
23.07.2024 09:10 20.1 C 79 % 1021.7 hPa 0.0 l/m 3.1 km/h W-SW 252 0 min 0 min 242 W/m 6.4 km/h
23.07.2024 09:05 19.8 C 78 % 1021.6 hPa 0.0 l/m 3.9 km/h SW 236 0 min 0 min 195 W/m 8.0 km/h
23.07.2024 09:00 19.8 C 77 % 1021.6 hPa 0.0 l/m 3.5 km/h SW 225 0 min 0 min 168 W/m 6.4 km/h
23.07.2024 08:55 19.8 C 77 % 1021.5 hPa 0.0 l/m 2.3 km/h S-SW 207 0 min 0 min 202 W/m 4.8 km/h
23.07.2024 08:50 19.8 C 77 % 1021.4 hPa 0.0 l/m 2.4 km/h S-SW 207 0 min 0 min 196 W/m 4.8 km/h
23.07.2024 08:45 19.9 C 77 % 1021.5 hPa 0.0 l/m 2.7 km/h S-SW 207 0 min 0 min 210 W/m 6.4 km/h
23.07.2024 08:40 19.7 C 78 % 1021.5 hPa 0.0 l/m 2.7 km/h S 184 0 min 0 min 200 W/m 6.4 km/h
23.07.2024 08:35 19.7 C 81 % 1021.4 hPa 0.0 l/m 2.3 km/h S-SW 207 0 min 0 min 217 W/m 6.4 km/h
23.07.2024 08:30 19.6 C 81 % 1021.4 hPa 0.0 l/m 3.0 km/h S 190 0 min 0 min 184 W/m 6.4 km/h
23.07.2024 08:25 19.4 C 78 % 1021.4 hPa 0.0 l/m 0.0 km/h SW 222 0 min 0 min 173 W/m 0.0 km/h
23.07.2024 08:20 19.4 C 80 % 1021.4 hPa 0.0 l/m 0.0 km/h W-SW 256 0 min 0 min 171 W/m 0.0 km/h
23.07.2024 08:15 19.2 C 80 % 1021.3 hPa 0.0 l/m 0.0 km/h W-NW 283 0 min 0 min 172 W/m 0.0 km/h
23.07.2024 08:10 19.0 C 80 % 1021.3 hPa 0.0 l/m 0.0 km/h W-SW 245 0 min 0 min 145 W/m 0.0 km/h
23.07.2024 08:05 18.9 C 80 % 1021.3 hPa 0.0 l/m 0.0 km/h W-SW 244 0 min 0 min 105 W/m 0.0 km/h
23.07.2024 08:00 18.8 C 80 % 1021.3 hPa 0.0 l/m 0.0 km/h W-SW 244 0 min 0 min 89 W/m 0.0 km/h
23.07.2024 07:55 18.7 C 81 % 1021.2 hPa 0.0 l/m 0.0 km/h W-SW 244 0 min 0 min 81 W/m 0.0 km/h
23.07.2024 07:50 18.7 C 80 % 1021.1 hPa 0.0 l/m 0.0 km/h W-SW 246 0 min 0 min 68 W/m 0.0 km/h
23.07.2024 07:45 18.8 C 81 % 1021.0 hPa 0.0 l/m 0.0 km/h W-SW 246 0 min 0 min 65 W/m 0.0 km/h
23.07.2024 07:40 18.8 C 80 % 1021.0 hPa 0.0 l/m 0.0 km/h W-SW 248 0 min 0 min 63 W/m 0.0 km/h
23.07.2024 07:35 18.8 C 80 % 1021.0 hPa 0.0 l/m 0.0 km/h W-SW 248 0 min 0 min 54 W/m 0.0 km/h
23.07.2024 07:30 18.7 C 81 % 1021.0 hPa 0.0 l/m 0.0 km/h W-SW 248 0 min 0 min 49 W/m 0.0 km/h
23.07.2024 07:25 18.6 C 82 % 1020.9 hPa 0.0 l/m 0.0 km/h W-SW 248 0 min 0 min 48 W/m 0.0 km/h
23.07.2024 07:20 18.4 C 85 % 1021.0 hPa 0.0 l/m 0.0 km/h W-SW 248 0 min 0 min 41 W/m 0.0 km/h
23.07.2024 07:15 18.4 C 84 % 1021.0 hPa 0.0 l/m 0.0 km/h W-SW 248 0 min 0 min 32 W/m 0.0 km/h
23.07.2024 07:10 18.4 C 85 % 1021.1 hPa 0.0 l/m 0.0 km/h W-SW 248 0 min 0 min 28 W/m 0.0 km/h
23.07.2024 07:05 18.4 C 84 % 1021.0 hPa 0.0 l/m 0.0 km/h W-SW 248 0 min 0 min 25 W/m 0.0 km/h
23.07.2024 07:00 18.4 C 85 % 1021.1 hPa 0.0 l/m 0.0 km/h W-SW 248 0 min 0 min 22 W/m 0.0 km/h
23.07.2024 06:55 18.3 C 85 % 1021.0 hPa 0.0 l/m 0.0 km/h W-SW 248 0 min 0 min 22 W/m 0.0 km/h
23.07.2024 06:50 18.4 C 84 % 1021.0 hPa 0.0 l/m 0.0 km/h W-SW 248 0 min 0 min 23 W/m 0.0 km/h
23.07.2024 06:45 18.4 C 84 % 1021.0 hPa 0.0 l/m 0.0 km/h W-SW 248 0 min 0 min 15 W/m 0.0 km/h
23.07.2024 06:40 18.6 C 83 % 1020.9 hPa 0.0 l/m 0.0 km/h W-SW 248 0 min 0 min 13 W/m 0.0 km/h
23.07.2024 06:35 18.6 C 82 % 1020.9 hPa 0.0 l/m 0.0 km/h W-SW 248 0 min 0 min 11 W/m 0.0 km/h
23.07.2024 06:30 18.6 C 82 % 1020.8 hPa 0.0 l/m 0.0 km/h W-SW 248 0 min 0 min 9 W/m 0.0 km/h
23.07.2024 06:25 18.6 C 82 % 1020.8 hPa 0.0 l/m 0.0 km/h W-SW 248 0 min 0 min 7 W/m 0.0 km/h
23.07.2024 06:20 18.5 C 83 % 1020.8 hPa 0.0 l/m 0.0 km/h W-SW 248 0 min 0 min 6 W/m 0.0 km/h
23.07.2024 06:15 18.5 C 83 % 1020.7 hPa 0.0 l/m 0.0 km/h W-SW 248 0 min 0 min 4 W/m 0.0 km/h
23.07.2024 06:10 18.4 C 85 % 1020.7 hPa 0.0 l/m 0.0 km/h W-SW 248 0 min 0 min 0 W/m 0.0 km/h
23.07.2024 06:05 18.4 C 85 % 1020.8 hPa 0.0 l/m 0.0 km/h W-SW 248 0 min 0 min 0 W/m 0.0 km/h
23.07.2024 06:00 18.4 C 84 % 1020.8 hPa 0.0 l/m 0.0 km/h W-SW 248 0 min 0 min 0 W/m 0.0 km/h
23.07.2024 05:55 18.5 C 84 % 1020.9 hPa 0.0 l/m 0.0 km/h W-SW 248 0 min 0 min 0 W/m 0.0 km/h
23.07.2024 05:50 18.6 C 83 % 1020.8 hPa 0.0 l/m 0.0 km/h W-SW 248 0 min 0 min 0 W/m 0.0 km/h
23.07.2024 05:45 18.6 C 83 % 1020.7 hPa 0.0 l/m 0.0 km/h W-SW 248 0 min 0 min 0 W/m 0.0 km/h
23.07.2024 05:40 18.7 C 82 % 1020.7 hPa 0.0 l/m 0.3 km/h W-SW 248 0 min 0 min 0 W/m 1.6 km/h
23.07.2024 05:35 18.7 C 81 % 1020.6 hPa 0.0 l/m 0.0 km/h W-SW 247 0 min 0 min 0 W/m 1.6 km/h
23.07.2024 05:30 18.8 C 82 % 1020.6 hPa 0.0 l/m 0.0 km/h N 0 0 min 0 min 0 W/m 0.0 km/h
23.07.2024 05:25 18.9 C 81 % 1020.6 hPa 0.0 l/m 1.6 km/h W-SW 247 0 min 0 min 0 W/m 3.2 km/h
23.07.2024 05:20 18.9 C 81 % 1020.6 hPa 0.0 l/m 2.0 km/h W-SW 248 0 min 0 min 0 W/m 3.2 km/h
23.07.2024 05:15 18.8 C 81 % 1020.6 hPa 0.0 l/m 2.1 km/h W-SW 248 0 min 0 min 0 W/m 3.2 km/h
23.07.2024 05:10 18.7 C 81 % 1020.6 hPa 0.0 l/m 0.6 km/h W-SW 248 0 min 0 min 0 W/m 3.2 km/h
23.07.2024 05:05 18.8 C 82 % 1020.5 hPa 0.0 l/m 0.0 km/h W-SW 248 0 min 0 min 0 W/m 0.0 km/h
23.07.2024 05:00 18.9 C 81 % 1020.6 hPa 0.0 l/m 0.7 km/h W-SW 248 0 min 0 min 0 W/m 3.2 km/h
23.07.2024 04:55 19.0 C 80 % 1020.6 hPa 0.0 l/m 0.8 km/h W-SW 248 0 min 0 min 0 W/m 3.2 km/h
23.07.2024 04:50 19.1 C 80 % 1020.5 hPa 0.0 l/m 1.5 km/h W-SW 248 0 min 0 min 0 W/m 4.8 km/h
23.07.2024 04:45 19.1 C 80 % 1020.5 hPa 0.0 l/m 1.1 km/h W-SW 250 0 min 0 min 0 W/m 3.2 km/h
23.07.2024 04:40 19.1 C 80 % 1020.4 hPa 0.0 l/m 1.0 km/h W-SW 250 0 min 0 min 0 W/m 3.2 km/h
23.07.2024 04:35 19.1 C 80 % 1020.6 hPa 0.0 l/m 0.0 km/h W-SW 252 0 min 0 min 0 W/m 0.0 km/h
23.07.2024 04:30 19.2 C 79 % 1020.6 hPa 0.0 l/m 0.0 km/h W-SW 252 0 min 0 min 0 W/m 0.0 km/h
23.07.2024 04:25 19.2 C 78 % 1020.7 hPa 0.0 l/m 0.0 km/h W-SW 252 0 min 0 min 0 W/m 0.0 km/h
23.07.2024 04:20 19.3 C 78 % 1020.6 hPa 0.0 l/m 0.0 km/h W-SW 252 0 min 0 min 0 W/m 0.0 km/h
23.07.2024 04:15 19.2 C 78 % 1020.6 hPa 0.0 l/m 0.7 km/h W-SW 252 0 min 0 min 0 W/m 3.2 km/h
23.07.2024 04:10 19.1 C 79 % 1020.6 hPa 0.0 l/m 2.0 km/h W-SW 252 0 min 0 min 0 W/m 3.2 km/h
23.07.2024 04:05 19.2 C 80 % 1020.6 hPa 0.0 l/m 0.6 km/h W-SW 252 0 min 0 min 0 W/m 4.8 km/h
23.07.2024 04:00 19.1 C 79 % 1020.6 hPa 0.0 l/m 0.0 km/h W-SW 254 0 min 0 min 0 W/m 0.0 km/h
23.07.2024 03:55 19.2 C 79 % 1020.7 hPa 0.0 l/m 0.0 km/h W-SW 254 0 min 0 min 0 W/m 0.0 km/h
23.07.2024 03:50 19.3 C 77 % 1020.6 hPa 0.0 l/m 0.0 km/h W-SW 254 0 min 0 min 0 W/m 0.0 km/h
23.07.2024 03:45 19.4 C 77 % 1020.7 hPa 0.0 l/m 0.0 km/h W-SW 254 0 min 0 min 0 W/m 0.0 km/h
23.07.2024 03:40 19.4 C 77 % 1020.8 hPa 0.0 l/m 0.0 km/h W-SW 254 0 min 0 min 0 W/m 0.0 km/h
23.07.2024 03:35 19.4 C 77 % 1020.8 hPa 0.0 l/m 0.8 km/h W-SW 254 0 min 0 min 0 W/m 3.2 km/h
23.07.2024 03:30 19.2 C 78 % 1020.8 hPa 0.0 l/m 2.4 km/h W-SW 254 0 min 0 min 0 W/m 4.8 km/h
23.07.2024 03:25 19.3 C 78 % 1020.8 hPa 0.0 l/m 1.4 km/h W-SW 246 0 min 0 min 0 W/m 4.8 km/h
23.07.2024 03:20 19.5 C 77 % 1020.8 hPa 0.0 l/m 2.0 km/h W-SW 246 0 min 0 min 0 W/m 3.2 km/h
23.07.2024 03:16 19.4 C 77 % 1020.7 hPa 0.0 l/m 0.8 km/h W-SW 246 0 min 0 min 0 W/m 3.2 km/h
23.07.2024 03:10 19.4 C 78 % 1020.7 hPa 0.0 l/m 1.6 km/h W-SW 246 0 min 0 min 0 W/m 6.4 km/h
23.07.2024 03:05 19.3 C 79 % 1020.6 hPa 0.0 l/m 0.8 km/h SW 221 0 min 0 min 0 W/m 3.2 km/h
23.07.2024 03:00 19.6 C 79 % 1020.6 hPa 0.0 l/m 0.2 km/h SW 221 0 min 0 min 0 W/m 3.2 km/h
23.07.2024 02:55 19.8 C 76 % 1020.6 hPa 0.0 l/m 1.7 km/h SW 221 0 min 0 min 0 W/m 3.2 km/h
23.07.2024 02:50 19.8 C 76 % 1020.5 hPa 0.0 l/m 0.5 km/h SW 221 0 min 0 min 0 W/m 6.4 km/h
23.07.2024 02:45 19.8 C 77 % 1020.6 hPa 0.0 l/m 0.0 km/h W-SW 247 0 min 0 min 0 W/m 0.0 km/h
23.07.2024 02:40 19.9 C 76 % 1020.6 hPa 0.0 l/m 0.0 km/h W-SW 247 0 min 0 min 0 W/m 0.0 km/h
23.07.2024 02:35 19.9 C 74 % 1020.5 hPa 0.0 l/m 0.6 km/h W-SW 247 0 min 0 min 0 W/m 3.2 km/h
23.07.2024 02:30 19.9 C 76 % 1020.5 hPa 0.0 l/m 1.1 km/h W-SW 247 0 min 0 min 0 W/m 3.2 km/h
23.07.2024 02:25 19.8 C 77 % 1020.5 hPa 0.0 l/m 0.5 km/h W-SW 248 0 min 0 min 0 W/m 3.2 km/h
23.07.2024 02:20 19.8 C 77 % 1020.4 hPa 0.0 l/m 0.5 km/h W-SW 248 0 min 0 min 0 W/m 1.6 km/h
23.07.2024 02:15 19.8 C 77 % 1020.4 hPa 0.0 l/m 0.1 km/h W-SW 248 0 min 0 min 0 W/m 1.6 km/h
23.07.2024 02:10 19.9 C 77 % 1020.5 hPa 0.0 l/m 0.0 km/h W-SW 248 0 min 0 min 0 W/m 0.0 km/h
23.07.2024 02:05 20.0 C 76 % 1020.4 hPa 0.0 l/m 1.3 km/h W-SW 248 0 min 0 min 0 W/m 4.8 km/h
23.07.2024 02:00 20.1 C 76 % 1020.5 hPa 0.0 l/m 2.2 km/h W-SW 256 0 min 0 min 0 W/m 8.0 km/h
23.07.2024 01:55 20.1 C 75 % 1020.5 hPa 0.0 l/m 2.5 km/h W-SW 252 0 min 0 min 0 W/m 4.8 km/h
23.07.2024 01:50 20.0 C 77 % 1020.5 hPa 0.0 l/m 0.0 km/h W-SW 252 0 min 0 min 0 W/m 1.6 km/h
23.07.2024 01:45 20.1 C 77 % 1020.4 hPa 0.0 l/m 0.0 km/h W-SW 252 0 min 0 min 0 W/m 0.0 km/h
23.07.2024 01:40 20.1 C 76 % 1020.4 hPa 0.0 l/m 2.1 km/h W-SW 252 0 min 0 min 0 W/m 4.8 km/h
23.07.2024 01:35 20.2 C 76 % 1020.4 hPa 0.0 l/m 4.0 km/h W-NW 299 0 min 0 min 0 W/m 9.7 km/h
23.07.2024 01:30 20.3 C 75 % 1020.5 hPa 0.0 l/m 2.7 km/h W-SW 251 0 min 0 min 0 W/m 6.4 km/h
23.07.2024 01:25 20.3 C 76 % 1020.5 hPa 0.0 l/m 3.1 km/h W-SW 243 0 min 0 min 0 W/m 8.0 km/h
23.07.2024 01:20 20.4 C 75 % 1020.4 hPa 0.0 l/m 2.3 km/h W-SW 248 0 min 0 min 0 W/m 4.8 km/h
23.07.2024 01:15 20.4 C 75 % 1020.5 hPa 0.0 l/m 1.7 km/h W-SW 246 0 min 0 min 0 W/m 6.4 km/h
23.07.2024 01:10 20.6 C 76 % 1020.5 hPa 0.0 l/m 1.9 km/h W-SW 250 0 min 0 min 0 W/m 4.8 km/h
23.07.2024 01:05 20.6 C 76 % 1020.6 hPa 0.0 l/m 3.0 km/h W-SW 250 0 min 0 min 0 W/m 8.0 km/h
23.07.2024 01:00 20.6 C 77 % 1020.6 hPa 0.0 l/m 4.2 km/h SW 227 0 min 0 min 0 W/m 9.7 km/h
23.07.2024 00:55 20.6 C 78 % 1020.5 hPa 0.0 l/m 3.4 km/h SW 235 0 min 0 min 0 W/m 6.4 km/h
23.07.2024 00:50 20.6 C 78 % 1020.6 hPa 0.0 l/m 3.1 km/h W-SW 250 0 min 0 min 0 W/m 4.8 km/h
23.07.2024 00:45 20.7 C 78 % 1020.5 hPa 0.0 l/m 4.1 km/h SW 227 0 min 0 min 0 W/m 8.0 km/h
23.07.2024 00:40 20.8 C 77 % 1020.5 hPa 0.0 l/m 3.9 km/h W-SW 244 0 min 0 min 0 W/m 8.0 km/h
23.07.2024 00:35 20.7 C 78 % 1020.4 hPa 0.0 l/m 3.3 km/h SW 227 0 min 0 min 0 W/m 6.4 km/h
23.07.2024 00:30 20.7 C 79 % 1020.5 hPa 0.0 l/m 1.5 km/h W-SW 242 0 min 0 min 0 W/m 4.8 km/h
23.07.2024 00:25 20.6 C 80 % 1020.5 hPa 0.0 l/m 2.5 km/h W-SW 242 0 min 0 min 0 W/m 6.4 km/h
23.07.2024 00:20 20.5 C 82 % 1020.6 hPa 0.0 l/m 2.5 km/h S-SW 213 0 min 0 min 0 W/m 4.8 km/h
23.07.2024 00:15 20.3 C 83 % 1020.6 hPa 0.0 l/m 3.3 km/h SW 214 0 min 0 min 0 W/m 6.4 km/h
23.07.2024 00:10 20.3 C 83 % 1020.6 hPa 0.0 l/m 1.9 km/h S-SW 202 0 min 0 min 0 W/m 4.8 km/h
23.07.2024 00:05 20.7 C 82 % 1020.6 hPa 0.0 l/m 3.7 km/h S-SW 202 0 min 0 min 0 W/m 6.4 km/h
23.07.2024 00:00 20.8 C 81 % 1020.6 hPa 0.0 l/m 2.9 km/h SW 217 0 min 0 min 0 W/m 4.8 km/h
22.07.2024 23:55 20.7 C 81 % 1020.6 hPa 0.0 l/m 1.9 km/h SW 217 0 min 0 min 0 W/m 4.8 km/h
22.07.2024 23:50 20.6 C 83 % 1020.6 hPa 0.0 l/m 2.1 km/h SW 217 0 min 0 min 0 W/m 6.4 km/h
22.07.2024 23:45 20.4 C 83 % 1020.6 hPa 0.0 l/m 1.8 km/h SW 216 0 min 0 min 0 W/m 4.8 km/h
22.07.2024 23:40 20.3 C 86 % 1020.6 hPa 0.0 l/m 1.0 km/h SW 216 0 min 0 min 0 W/m 3.2 km/h
22.07.2024 23:35 20.3 C 85 % 1020.6 hPa 0.0 l/m 0.5 km/h SW 217 0 min 0 min 0 W/m 3.2 km/h
22.07.2024 23:30 20.4 C 85 % 1020.6 hPa 0.0 l/m 0.8 km/h SW 216 0 min 0 min 0 W/m 3.2 km/h
22.07.2024 23:25 20.6 C 84 % 1020.6 hPa 0.0 l/m 1.0 km/h SW 216 0 min 0 min 0 W/m 3.2 km/h
22.07.2024 23:20 20.8 C 83 % 1020.6 hPa 0.0 l/m 0.7 km/h SW 216 0 min 0 min 0 W/m 3.2 km/h
22.07.2024 23:15 20.8 C 83 % 1020.6 hPa 0.0 l/m 1.4 km/h SW 216 0 min 0 min 0 W/m 4.8 km/h
22.07.2024 23:10 20.9 C 83 % 1020.5 hPa 0.0 l/m 2.5 km/h SW 217 0 min 0 min 0 W/m 4.8 km/h
22.07.2024 23:05 20.9 C 82 % 1020.6 hPa 0.0 l/m 1.8 km/h S-SW 207 0 min 0 min 0 W/m 4.8 km/h
22.07.2024 23:00 20.8 C 83 % 1020.5 hPa 0.0 l/m 1.8 km/h S-SW 207 0 min 0 min 0 W/m 6.4 km/h
22.07.2024 22:55 20.7 C 83 % 1020.4 hPa 0.0 l/m 0.9 km/h S-SW 207 0 min 0 min 0 W/m 3.2 km/h
22.07.2024 22:50 20.7 C 83 % 1020.5 hPa 0.0 l/m 1.7 km/h S-SW 207 0 min 0 min 0 W/m 6.4 km/h
22.07.2024 22:45 20.8 C 83 % 1020.4 hPa 0.0 l/m 1.0 km/h S-SW 212 0 min 0 min 0 W/m 4.8 km/h
22.07.2024 22:40 21.0 C 82 % 1020.4 hPa 0.0 l/m 3.1 km/h S-SW 212 0 min 0 min 0 W/m 4.8 km/h
22.07.2024 22:35 21.1 C 82 % 1020.4 hPa 0.0 l/m 2.6 km/h SW 221 0 min 0 min 0 W/m 4.8 km/h
22.07.2024 22:30 21.1 C 82 % 1020.4 hPa 0.0 l/m 3.0 km/h SW 221 0 min 0 min 0 W/m 6.4 km/h
22.07.2024 22:25 21.2 C 81 % 1020.4 hPa 0.0 l/m 3.7 km/h SW 215 0 min 0 min 0 W/m 8.0 km/h
22.07.2024 22:20 21.3 C 81 % 1020.4 hPa 0.0 l/m 3.9 km/h SW 226 0 min 0 min 0 W/m 6.4 km/h
22.07.2024 22:15 21.2 C 81 % 1020.3 hPa 0.0 l/m 4.1 km/h SW 219 0 min 0 min 0 W/m 6.4 km/h
22.07.2024 22:10 21.2 C 81 % 1020.3 hPa 0.0 l/m 3.6 km/h SW 234 0 min 0 min 0 W/m 6.4 km/h
22.07.2024 22:05 21.3 C 81 % 1020.2 hPa 0.0 l/m 4.6 km/h SW 231 0 min 0 min 0 W/m 8.0 km/h
22.07.2024 22:00 21.4 C 81 % 1020.2 hPa 0.0 l/m 3.8 km/h SW 219 0 min 0 min 0 W/m 6.4 km/h
22.07.2024 21:55 21.6 C 81 % 1020.1 hPa 0.0 l/m 3.5 km/h W-SW 240 0 min 0 min 0 W/m 8.0 km/h
22.07.2024 21:50 21.6 C 80 % 1020.1 hPa 0.0 l/m 3.3 km/h W-SW 246 0 min 0 min 0 W/m 8.0 km/h
22.07.2024 21:45 21.7 C 80 % 1020.0 hPa 0.0 l/m 3.4 km/h S-SW 209 0 min 0 min 0 W/m 8.0 km/h
22.07.2024 21:40 21.7 C 80 % 1019.9 hPa 0.0 l/m 1.7 km/h S-SW 200 0 min 0 min 0 W/m 6.4 km/h
22.07.2024 21:35 21.8 C 80 % 1020.0 hPa 0.0 l/m 1.8 km/h S-SW 205 0 min 0 min 0 W/m 4.8 km/h
22.07.2024 21:30 21.8 C 79 % 1019.9 hPa 0.0 l/m 2.4 km/h S-SW 198 0 min 0 min 0 W/m 4.8 km/h
22.07.2024 21:25 21.9 C 79 % 1019.8 hPa 0.0 l/m 2.2 km/h S-SW 198 0 min 0 min 0 W/m 4.8 km/h
22.07.2024 21:20 21.9 C 79 % 1019.7 hPa 0.0 l/m 4.4 km/h S-SW 205 0 min 0 min 0 W/m 9.7 km/h
22.07.2024 21:15 22.0 C 79 % 1019.7 hPa 0.0 l/m 6.2 km/h S 186 0 min 0 min 0 W/m 11.3 km/h
22.07.2024 21:10 22.1 C 79 % 1019.6 hPa 0.0 l/m 4.0 km/h S-SW 199 0 min 0 min 5 W/m 6.4 km/h
22.07.2024 21:05 22.2 C 78 % 1019.6 hPa 0.0 l/m 7.3 km/h S-SW 211 0 min 0 min 6 W/m 12.9 km/h
22.07.2024 21:00 22.1 C 78 % 1019.5 hPa 0.0 l/m 6.8 km/h S-SW 192 0 min 0 min 9 W/m 14.5 km/h
22.07.2024 20:55 22.1 C 78 % 1019.5 hPa 0.0 l/m 5.9 km/h S-SW 198 0 min 0 min 11 W/m 12.9 km/h
22.07.2024 20:50 22.2 C 78 % 1019.4 hPa 0.0 l/m 3.5 km/h S 181 0 min 0 min 12 W/m 12.9 km/h
22.07.2024 20:45 22.2 C 78 % 1019.4 hPa 0.0 l/m 5.6 km/h S-SW 209 0 min 0 min 12 W/m 9.7 km/h
22.07.2024 20:40 22.3 C 78 % 1019.3 hPa 0.0 l/m 7.1 km/h S 190 0 min 0 min 12 W/m 16.1 km/h
22.07.2024 20:35 22.2 C 78 % 1019.3 hPa 0.0 l/m 4.9 km/h SW 229 0 min 0 min 12 W/m 9.7 km/h
22.07.2024 20:30 22.3 C 78 % 1019.2 hPa 0.0 l/m 5.3 km/h S-SW 201 0 min 0 min 13 W/m 9.7 km/h
22.07.2024 20:25 22.3 C 78 % 1019.2 hPa 0.0 l/m 6.8 km/h S-SW 204 0 min 0 min 15 W/m 12.9 km/h
22.07.2024 20:20 22.4 C 78 % 1019.2 hPa 0.0 l/m 5.5 km/h S-SW 196 0 min 0 min 18 W/m 11.3 km/h
22.07.2024 20:15 22.4 C 78 % 1019.1 hPa 0.0 l/m 5.8 km/h S 188 0 min 0 min 20 W/m 12.9 km/h
22.07.2024 20:10 22.4 C 78 % 1019.1 hPa 0.0 l/m 6.0 km/h S 177 0 min 0 min 22 W/m 12.9 km/h
22.07.2024 20:05 22.4 C 78 % 1019.0 hPa 0.0 l/m 5.6 km/h S 169 0 min 0 min 26 W/m 9.7 km/h
22.07.2024 20:00 22.5 C 77 % 1019.0 hPa 0.0 l/m 5.5 km/h S-SW 193 0 min 0 min 30 W/m 11.3 km/h
22.07.2024 19:55 22.6 C 77 % 1019.0 hPa 0.0 l/m 8.3 km/h S 178 0 min 0 min 32 W/m 16.1 km/h
22.07.2024 19:50 22.7 C 77 % 1019.1 hPa 0.0 l/m 5.4 km/h S 172 0 min 0 min 36 W/m 11.3 km/h
22.07.2024 19:45 22.7 C 77 % 1019.0 hPa 0.0 l/m 5.5 km/h S 182 0 min 0 min 41 W/m 11.3 km/h
22.07.2024 19:40 22.8 C 76 % 1019.0 hPa 0.0 l/m 6.3 km/h S 181 0 min 0 min 45 W/m 12.9 km/h
22.07.2024 19:35 22.8 C 76 % 1019.0 hPa 0.0 l/m 5.2 km/h S-SO 168 0 min 0 min 51 W/m 9.7 km/h
22.07.2024 19:30 22.8 C 76 % 1019.0 hPa 0.0 l/m 7.0 km/h S 182 0 min 0 min 70 W/m 17.7 km/h
22.07.2024 19:25 22.9 C 75 % 1019.0 hPa 0.0 l/m 9.3 km/h S-SW 194 0 min 0 min 81 W/m 16.1 km/h
22.07.2024 19:20 22.9 C 75 % 1018.9 hPa 0.0 l/m 7.9 km/h SW 230 0 min 0 min 92 W/m 22.5 km/h
22.07.2024 19:15 23.0 C 75 % 1018.9 hPa 0.0 l/m 10.0 km/h S 182 0 min 0 min 106 W/m 19.3 km/h
22.07.2024 19:10 23.1 C 75 % 1018.8 hPa 0.0 l/m 7.0 km/h S-SO 166 0 min 0 min 111 W/m 12.9 km/h
22.07.2024 19:05 23.2 C 75 % 1018.8 hPa 0.0 l/m 8.8 km/h S 183 0 min 0 min 144 W/m 17.7 km/h
22.07.2024 19:00 23.3 C 74 % 1018.7 hPa 0.0 l/m 10.4 km/h S-SW 193 5 min 0 min 310 W/m 17.7 km/h
22.07.2024 18:55 23.1 C 75 % 1018.8 hPa 0.0 l/m 10.2 km/h S 175 5 min 0 min 196 W/m 17.7 km/h
22.07.2024 18:50 23.1 C 75 % 1018.8 hPa 0.0 l/m 8.7 km/h S-SO 165 0 min 0 min 156 W/m 17.7 km/h
22.07.2024 18:45 23.1 C 75 % 1018.8 hPa 0.0 l/m 9.5 km/h S-SW 200 0 min 0 min 168 W/m 16.1 km/h
22.07.2024 18:40 23.1 C 74 % 1018.9 hPa 0.0 l/m 11.9 km/h S-SO 168 0 min 0 min 183 W/m 20.9 km/h
22.07.2024 18:35 23.3 C 74 % 1018.7 hPa 0.0 l/m 8.6 km/h S-SO 157 0 min 0 min 184 W/m 17.7 km/h
22.07.2024 18:30 23.3 C 75 % 1018.8 hPa 0.0 l/m 8.6 km/h SW 227 0 min 0 min 189 W/m 14.5 km/h
22.07.2024 18:25 23.6 C 75 % 1018.7 hPa 0.0 l/m 8.8 km/h S-SO 157 0 min 0 min 205 W/m 16.1 km/h
22.07.2024 18:20 23.7 C 75 % 1018.6 hPa 0.0 l/m 8.7 km/h S-SO 166 5 min 0 min 412 W/m 19.3 km/h
22.07.2024 18:15 23.3 C 75 % 1018.6 hPa 0.0 l/m 8.9 km/h SW 221 5 min 0 min 330 W/m 17.7 km/h
22.07.2024 18:10 23.4 C 75 % 1018.7 hPa 0.0 l/m 8.5 km/h S 177 5 min 0 min 309 W/m 16.1 km/h
22.07.2024 18:05 23.3 C 75 % 1018.6 hPa 0.0 l/m 7.8 km/h S 185 0 min 0 min 253 W/m 17.7 km/h
22.07.2024 18:00 23.2 C 75 % 1018.7 hPa 0.0 l/m 6.6 km/h S 178 0 min 0 min 256 W/m 12.9 km/h
22.07.2024 17:55 23.1 C 75 % 1018.7 hPa 0.0 l/m 7.6 km/h SW 221 0 min 0 min 217 W/m 16.1 km/h
22.07.2024 17:50 23.0 C 76 % 1018.8 hPa 0.0 l/m 9.8 km/h SW 219 0 min 0 min 221 W/m 19.3 km/h
22.07.2024 17:45 23.0 C 76 % 1018.7 hPa 0.0 l/m 9.1 km/h S 184 0 min 0 min 238 W/m 16.1 km/h
22.07.2024 17:40 22.9 C 77 % 1018.7 hPa 0.0 l/m 10.8 km/h S 189 0 min 0 min 215 W/m 19.3 km/h
22.07.2024 17:35 22.9 C 76 % 1018.9 hPa 0.0 l/m 11.6 km/h S 187 0 min 0 min 204 W/m 22.5 km/h
22.07.2024 17:30 22.9 C 77 % 1018.9 hPa 0.0 l/m 9.6 km/h S-SO 163 0 min 0 min 209 W/m 19.3 km/h
22.07.2024 17:25 22.9 C 77 % 1018.9 hPa 0.0 l/m 10.6 km/h S 177 0 min 0 min 217 W/m 16.1 km/h
22.07.2024 17:20 22.9 C 77 % 1018.9 hPa 0.0 l/m 12.5 km/h S 181 0 min 0 min 209 W/m 20.9 km/h
22.07.2024 17:15 23.2 C 76 % 1018.8 hPa 0.0 l/m 10.1 km/h S 186 0 min 0 min 195 W/m 17.7 km/h
22.07.2024 17:10 23.3 C 78 % 1018.8 hPa 0.0 l/m 9.5 km/h S-SO 151 0 min 0 min 198 W/m 17.7 km/h
22.07.2024 17:05 23.3 C 77 % 1018.9 hPa 0.0 l/m 6.4 km/h S 181 0 min 0 min 216 W/m 16.1 km/h
22.07.2024 17:00 23.2 C 77 % 1018.9 hPa 0.0 l/m 6.3 km/h S-SW 208 0 min 0 min 208 W/m 16.1 km/h
22.07.2024 16:55 23.2 C 77 % 1018.9 hPa 0.0 l/m 8.6 km/h S-SW 194 0 min 0 min 199 W/m 20.9 km/h
22.07.2024 16:50 23.3 C 78 % 1018.9 hPa 0.0 l/m 8.6 km/h S-SW 198 0 min 0 min 213 W/m 19.3 km/h
22.07.2024 16:45 23.5 C 77 % 1018.9 hPa 0.0 l/m 9.0 km/h S-SO 150 0 min 0 min 237 W/m 19.3 km/h
22.07.2024 16:40 23.6 C 78 % 1018.9 hPa 0.0 l/m 7.3 km/h O-SO 109 0 min 0 min 285 W/m 16.1 km/h
22.07.2024 16:35 23.5 C 76 % 1019.0 hPa 0.0 l/m 8.6 km/h W-SW 251 0 min 0 min 340 W/m 16.1 km/h
22.07.2024 16:30 23.7 C 76 % 1019.0 hPa 0.0 l/m 11.0 km/h SW 230 5 min 0 min 412 W/m 22.5 km/h
22.07.2024 16:25 24.2 C 76 % 1019.0 hPa 0.0 l/m 11.4 km/h S-SO 152 5 min 0 min 696 W/m 19.3 km/h
22.07.2024 16:20 23.6 C 75 % 1018.9 hPa 0.0 l/m 10.0 km/h S-SO 162 5 min 0 min 411 W/m 19.3 km/h
22.07.2024 16:15 23.4 C 75 % 1018.9 hPa 0.0 l/m 8.5 km/h S 172 0 min 0 min 325 W/m 14.5 km/h
22.07.2024 16:10 23.4 C 76 % 1019.0 hPa 0.0 l/m 9.2 km/h SW 219 0 min 0 min 311 W/m 16.1 km/h
22.07.2024 16:05 23.3 C 77 % 1018.9 hPa 0.0 l/m 8.9 km/h S 186 0 min 0 min 311 W/m 17.7 km/h
22.07.2024 16:00 23.3 C 76 % 1018.9 hPa 0.0 l/m 6.0 km/h W-SW 243 0 min 0 min 292 W/m 11.3 km/h
22.07.2024 15:55 23.2 C 77 % 1019.0 hPa 0.0 l/m 8.8 km/h SW 224 0 min 0 min 302 W/m 17.7 km/h
22.07.2024 15:50 23.3 C 76 % 1018.8 hPa 0.0 l/m 7.5 km/h S-SW 196 0 min 0 min 318 W/m 17.7 km/h
22.07.2024 15:45 23.2 C 76 % 1018.9 hPa 0.0 l/m 12.3 km/h SW 227 0 min 0 min 323 W/m 22.5 km/h
22.07.2024 15:40 23.4 C 74 % 1018.9 hPa 0.0 l/m 8.4 km/h SW 232 0 min 0 min 319 W/m 24.1 km/h
22.07.2024 15:35 23.6 C 74 % 1018.8 hPa 0.0 l/m 7.8 km/h W-SW 244 0 min 0 min 277 W/m 16.1 km/h
22.07.2024 15:30 23.6 C 76 % 1018.8 hPa 0.0 l/m 8.9 km/h S-SW 209 0 min 0 min 342 W/m 19.3 km/h
22.07.2024 15:25 23.6 C 74 % 1018.8 hPa 0.0 l/m 5.8 km/h S 173 0 min 0 min 308 W/m 11.3 km/h
22.07.2024 15:20 23.9 C 74 % 1018.8 hPa 0.0 l/m 6.9 km/h SW 236 0 min 0 min 382 W/m 16.1 km/h
22.07.2024 15:15 24.2 C 73 % 1018.7 hPa 0.0 l/m 6.3 km/h SW 220 5 min 0 min 623 W/m 11.3 km/h
22.07.2024 15:10 24.2 C 74 % 1018.8 hPa 0.0 l/m 9.1 km/h S-SO 150 5 min 0 min 644 W/m 14.5 km/h
22.07.2024 15:05 23.8 C 74 % 1018.7 hPa 0.0 l/m 8.4 km/h S 182 5 min 0 min 552 W/m 17.7 km/h
22.07.2024 15:00 23.6 C 74 % 1018.7 hPa 0.0 l/m 7.4 km/h S-SW 196 5 min 0 min 515 W/m 17.7 km/h
22.07.2024 14:55 23.6 C 77 % 1018.7 hPa 0.0 l/m 8.0 km/h S-SO 159 5 min 0 min 623 W/m 14.5 km/h
22.07.2024 14:50 23.6 C 75 % 1018.8 hPa 0.0 l/m 5.5 km/h S-SW 194 5 min 0 min 704 W/m 9.7 km/h
22.07.2024 14:45 23.6 C 78 % 1018.8 hPa 0.0 l/m 7.5 km/h SW 219 5 min 0 min 622 W/m 14.5 km/h
22.07.2024 14:40 24.1 C 76 % 1018.8 hPa 0.0 l/m 5.1 km/h S-SW 209 5 min 0 min 913 W/m 11.3 km/h
22.07.2024 14:35 23.1 C 81 % 1018.9 hPa 0.0 l/m 6.7 km/h W 265 5 min 0 min 651 W/m 14.5 km/h
22.07.2024 14:30 22.6 C 79 % 1018.8 hPa 0.0 l/m 6.7 km/h W-SW 242 5 min 0 min 556 W/m 12.9 km/h
22.07.2024 14:25 22.1 C 80 % 1019.0 hPa 0.0 l/m 8.0 km/h S 190 5 min 0 min 493 W/m 12.9 km/h
22.07.2024 14:20 22.2 C 80 % 1018.9 hPa 0.0 l/m 7.6 km/h SW 214 0 min 0 min 441 W/m 12.9 km/h
22.07.2024 14:15 22.3 C 80 % 1018.9 hPa 0.0 l/m 7.1 km/h SW 222 0 min 0 min 449 W/m 14.5 km/h
22.07.2024 14:10 22.3 C 81 % 1018.9 hPa 0.0 l/m 5.7 km/h S 175 0 min 0 min 449 W/m 11.3 km/h
22.07.2024 14:05 22.1 C 80 % 1019.0 hPa 0.0 l/m 6.1 km/h S 189 0 min 0 min 434 W/m 11.3 km/h
22.07.2024 14:00 22.1 C 82 % 1019.0 hPa 0.0 l/m 7.8 km/h S-SW 213 5 min 0 min 494 W/m 16.1 km/h
22.07.2024 13:55 22.3 C 83 % 1018.8 hPa 0.0 l/m 8.4 km/h S 180 5 min 0 min 1031 W/m 14.5 km/h
22.07.2024 13:50 22.4 C 82 % 1018.9 hPa 0.0 l/m 9.4 km/h S 173 5 min 0 min 1083 W/m 17.7 km/h
22.07.2024 13:45 21.8 C 84 % 1019.0 hPa 0.0 l/m 7.8 km/h S-SO 159 5 min 0 min 846 W/m 16.1 km/h
22.07.2024 13:40 21.9 C 86 % 1018.9 hPa 0.0 l/m 8.0 km/h S 177 5 min 0 min 740 W/m 14.5 km/h
22.07.2024 13:35 21.6 C 88 % 1019.0 hPa 0.0 l/m 8.7 km/h S 184 5 min 0 min 694 W/m 14.5 km/h
22.07.2024 13:30 21.2 C 87 % 1019.1 hPa 0.0 l/m 7.1 km/h S-SO 155 5 min 0 min 610 W/m 12.9 km/h
22.07.2024 13:25 20.8 C 89 % 1019.0 hPa 0.0 l/m 5.6 km/h S-SW 193 5 min 0 min 542 W/m 9.7 km/h
22.07.2024 13:20 20.4 C 89 % 1019.1 hPa 0.0 l/m 5.1 km/h S 190 0 min 0 min 467 W/m 11.3 km/h
22.07.2024 13:15 20.2 C 89 % 1019.0 hPa 0.0 l/m 6.4 km/h S 169 0 min 0 min 413 W/m 11.3 km/h
22.07.2024 13:10 20.1 C 89 % 1019.0 hPa 0.0 l/m 5.2 km/h S 173 0 min 0 min 382 W/m 9.7 km/h
22.07.2024 13:05 20.0 C 92 % 1019.0 hPa 0.0 l/m 7.2 km/h S-SW 197 0 min 0 min 347 W/m 11.3 km/h
22.07.2024 13:00 20.0 C 92 % 1019.0 hPa 0.0 l/m 5.3 km/h S-SO 164 0 min 0 min 391 W/m 9.7 km/h
22.07.2024 12:55 19.9 C 93 % 1019.0 hPa 0.0 l/m 3.7 km/h S 180 0 min 0 min 402 W/m 8.0 km/h
22.07.2024 12:50 19.9 C 93 % 1019.0 hPa 0.0 l/m 4.3 km/h S 183 0 min 0 min 459 W/m 11.3 km/h
22.07.2024 12:45 19.7 C 95 % 1018.9 hPa 0.0 l/m 0.9 km/h S-SW 192 5 min 0 min 477 W/m 3.2 km/h
22.07.2024 12:40 19.2 C 93 % 1019.1 hPa 0.0 l/m 3.0 km/h S-SW 192 0 min 0 min 443 W/m 8.0 km/h
22.07.2024 12:35 18.8 C 93 % 1019.1 hPa 0.0 l/m 2.6 km/h SW 225 0 min 0 min 365 W/m 6.4 km/h
22.07.2024 12:30 19.0 C 95 % 1019.1 hPa 0.0 l/m 2.2 km/h S-SW 202 0 min 0 min 311 W/m 4.8 km/h
22.07.2024 12:25 18.7 C 95 % 1019.0 hPa 0.0 l/m 2.3 km/h S-SW 197 0 min 0 min 274 W/m 8.0 km/h
22.07.2024 12:20 18.4 C 94 % 1019.0 hPa 0.0 l/m 2.8 km/h S-SW 211 0 min 0 min 237 W/m 6.4 km/h
22.07.2024 12:15 18.4 C 95 % 1019.1 hPa 0.0 l/m 0.1 km/h N 355 0 min 5 min 223 W/m 1.6 km/h
22.07.2024 12:10 18.3 C 95 % 1019.0 hPa 0.0 l/m 0.2 km/h N 355 0 min 5 min 216 W/m 1.6 km/h
22.07.2024 12:05 18.2 C 95 % 1019.1 hPa 0.0 l/m 0.5 km/h N 360 0 min 5 min 189 W/m 3.2 km/h
22.07.2024 12:00 17.9 C 96 % 1019.0 hPa 0.2 l/m 2.7 km/h N 360 0 min 5 min 175 W/m 8.0 km/h
22.07.2024 11:55 17.8 C 95 % 1018.9 hPa 0.6 l/m 5.5 km/h N 5 0 min 5 min 168 W/m 8.0 km/h
22.07.2024 11:50 17.8 C 94 % 1018.8 hPa 0.6 l/m 5.8 km/h N 9 0 min 5 min 155 W/m 14.5 km/h
22.07.2024 11:45 18.2 C 94 % 1018.9 hPa 0.8 l/m 10.3 km/h NW 309 0 min 5 min 111 W/m 17.7 km/h
22.07.2024 11:40 19.1 C 92 % 1018.8 hPa 0.6 l/m 10.7 km/h NW 323 0 min 5 min 66 W/m 20.9 km/h
22.07.2024 11:35 19.8 C 95 % 1018.6 hPa 0.0 l/m 2.3 km/h W-NW 290 0 min 5 min 168 W/m 6.4 km/h
22.07.2024 11:30 19.8 C 95 % 1018.5 hPa 0.2 l/m 2.8 km/h NW 319 0 min 0 min 239 W/m 6.4 km/h
22.07.2024 11:25 19.8 C 96 % 1018.4 hPa 0.0 l/m 2.2 km/h N-NW 338 0 min 5 min 254 W/m 4.8 km/h
22.07.2024 11:20 19.7 C 95 % 1018.3 hPa 0.0 l/m 3.1 km/h W-NW 296 0 min 5 min 234 W/m 6.4 km/h
22.07.2024 11:15 19.7 C 95 % 1018.4 hPa 0.0 l/m 3.9 km/h NW 313 0 min 5 min 220 W/m 8.0 km/h
22.07.2024 11:10 19.7 C 94 % 1018.2 hPa 0.0 l/m 4.0 km/h W-NW 295 0 min 5 min 228 W/m 9.7 km/h
22.07.2024 11:05 19.6 C 95 % 1018.2 hPa 0.2 l/m 4.1 km/h W-NW 296 0 min 5 min 221 W/m 6.4 km/h
22.07.2024 11:00 19.7 C 94 % 1018.1 hPa 0.2 l/m 5.2 km/h W 277 0 min 5 min 229 W/m 12.9 km/h
22.07.2024 10:55 19.6 C 95 % 1018.0 hPa 0.0 l/m 4.0 km/h W-NW 284 0 min 5 min 256 W/m 8.0 km/h
22.07.2024 10:50 19.6 C 96 % 1018.0 hPa 0.2 l/m 3.8 km/h W-SW 255 0 min 5 min 260 W/m 8.0 km/h
22.07.2024 10:45 19.4 C 95 % 1017.9 hPa 0.0 l/m 4.2 km/h W 260 0 min 5 min 227 W/m 11.3 km/h
22.07.2024 10:40 19.4 C 96 % 1017.8 hPa 0.0 l/m 4.2 km/h W 261 0 min 5 min 196 W/m 8.0 km/h
22.07.2024 10:35 19.3 C 95 % 1017.8 hPa 0.2 l/m 5.7 km/h S-SW 208 0 min 5 min 179 W/m 11.3 km/h
22.07.2024 10:30 19.4 C 95 % 1017.8 hPa 0.4 l/m 3.5 km/h SW 215 0 min 5 min 170 W/m 9.7 km/h
22.07.2024 10:25 19.4 C 94 % 1017.8 hPa 0.0 l/m 7.4 km/h S-SW 213 0 min 5 min 163 W/m 17.7 km/h
22.07.2024 10:20 19.5 C 94 % 1017.8 hPa 0.0 l/m 6.2 km/h W-SW 246 0 min 0 min 158 W/m 11.3 km/h
22.07.2024 10:15 19.5 C 94 % 1017.7 hPa 0.0 l/m 7.3 km/h W-SW 252 0 min 5 min 173 W/m 17.7 km/h
22.07.2024 10:10 19.6 C 94 % 1017.8 hPa 0.0 l/m 6.2 km/h W 278 0 min 0 min 183 W/m 12.9 km/h
22.07.2024 10:05 19.7 C 94 % 1017.8 hPa 0.0 l/m 7.8 km/h W-SW 246 0 min 5 min 196 W/m 16.1 km/h
22.07.2024 10:00 19.7 C 94 % 1017.8 hPa 0.0 l/m 5.4 km/h S-SW 198 0 min 0 min 176 W/m 12.9 km/h
_ Min-Zeit 11:50 15:15 10:15 - 01:45 - - - - - 01:45
Minimum _ 17.8 C 73 % 1017.7 hPa - 0.0 km/h - - - - - 0.0 km/h
_ Max-Zeit 15:10 10:40 09:10 11:45 17:20 - - 12:45 10:05 13:50 15:40
Maximum _ 24.2 C 96 % 1021.7 hPa 0.8 l/m 12.5 km/h
S
- - 5 min 5 min 1083 W/m 24.1 km/h
SW
Durchschnitt _ 20.7 C 82 % 1019.7 hPa #4.2 l/m 4.1 km/h S-SW - #20 min. #0 min. 134 W/m 8.8 km/h